Time;durP1;ratioP1;P1;durP2;ratioP2;P2;SDS_P1;SDS_P2;PMS_P1;PMS_P2;Temp;Humidity;BMP_temperature;BMP_pressure;BME280_temperature;BME280_humidity;BME280_pressure;Samples;Min_cycle;Max_cycle;Signal;HPM_P1;HPM_P2
2022/07/14 00:01:12;;;;;;;2.22;1.15;;;20.60;90.00;;;;;;4982807;28;20011;-76
2022/07/14 00:03:37;;;;;;;2.20;1.80;;;20.60;89.80;;;;;;4989047;28;20064;-78
2022/07/14 00:06:03;;;;;;;1.60;1.33;;;20.50;90.30;;;;;;4991083;28;20029;-76
2022/07/14 00:08:28;;;;;;;1.73;1.30;;;20.50;90.60;;;;;;4989878;28;20038;-76
2022/07/14 00:10:54;;;;;;;1.95;1.35;;;20.40;90.90;;;;;;4990534;28;20038;-78
2022/07/14 00:13:20;;;;;;;1.35;1.20;;;20.40;91.50;;;;;;4989657;28;20541;-78
2022/07/14 00:15:45;;;;;;;1.10;1.00;;;20.40;91.40;;;;;;4990402;28;20571;-77
2022/07/14 00:18:10;;;;;;;1.55;1.20;;;20.30;91.80;;;;;;4990297;28;20037;-77
2022/07/14 00:20:36;;;;;;;1.30;1.20;;;20.30;91.60;;;;;;4989332;28;20028;-78
2022/07/14 00:23:02;;;;;;;2.03;1.33;;;20.30;92.50;;;;;;4990003;28;20034;-79
2022/07/14 00:25:27;;;;;;;1.67;1.42;;;20.20;92.20;;;;;;4990142;28;20073;-78
2022/07/14 00:27:54;;;;;;;1.25;1.15;;;20.20;92.30;;;;;;4990622;28;20030;-77
2022/07/14 00:30:20;;;;;;;0.80;0.80;;;20.20;92.50;;;;;;4990698;28;20038;-78
2022/07/14 00:32:46;;;;;;;1.75;1.35;;;20.10;92.50;;;;;;4990397;28;20053;-78
2022/07/14 00:35:12;;;;;;;1.50;1.23;;;20.10;92.80;;;;;;4990210;28;20042;-77
2022/07/14 00:37:37;;;;;;;1.75;1.35;;;20.00;93.20;;;;;;4989654;28;20046;-79
2022/07/14 00:40:04;;;;;;;1.77;1.35;;;20.00;93.30;;;;;;4989890;28;20110;-78
2022/07/14 00:42:34;;;;;;;1.50;1.23;;;19.90;93.60;;;;;;4990332;28;20054;-78
2022/07/14 00:45:10;;;;;;;2.17;1.33;;;19.90;93.70;;;;;;4990401;28;20029;-78
2022/07/14 00:47:37;;;;;;;1.10;1.00;;;19.80;94.00;;;;;;4989861;28;20022;-79
2022/07/14 00:50:05;;;;;;;1.83;1.05;;;19.90;94.10;;;;;;4990179;28;20031;-79
2022/07/14 00:52:31;;;;;;;1.65;1.05;;;19.80;94.60;;;;;;4988401;28;20035;-77
2022/07/14 00:54:57;;;;;;;1.20;1.10;;;19.70;93.90;;;;;;4989463;28;20110;-77
2022/07/14 00:57:23;;;;;;;1.38;0.95;;;19.60;93.90;;;;;;4989855;28;20088;-77
2022/07/14 00:59:49;;;;;;;2.92;1.33;;;19.60;94.80;;;;;;4989646;28;20085;-79
2022/07/14 01:02:17;;;;;;;1.15;1.00;;;19.60;94.20;;;;;;4989472;28;20034;-77
2022/07/14 01:04:44;;;;;;;1.52;1.20;;;19.70;93.80;;;;;;4990204;28;20034;-78
2022/07/14 01:07:10;;;;;;;0.80;0.80;;;19.70;94.00;;;;;;4989850;28;20030;-80
2022/07/14 01:09:36;;;;;;;1.15;1.05;;;19.70;94.10;;;;;;4989600;28;20041;-79
2022/07/14 01:12:01;;;;;;;1.23;1.13;;;19.60;94.30;;;;;;4988705;28;20097;-78
2022/07/14 01:14:27;;;;;;;1.80;1.25;;;19.60;94.50;;;;;;4989629;28;20022;-78
2022/07/14 01:16:55;;;;;;;1.92;1.10;;;19.50;94.70;;;;;;4989724;28;20022;-78
2022/07/14 01:19:21;;;;;;;0.90;0.90;;;19.50;95.30;;;;;;4989685;28;20042;-79
2022/07/14 01:21:48;;;;;;;1.10;1.00;;;19.40;95.30;;;;;;4988956;28;20089;-79
2022/07/14 01:24:13;;;;;;;2.22;1.05;;;19.40;95.70;;;;;;4989412;28;20057;-79
2022/07/14 01:26:39;;;;;;;0.82;0.80;;;19.30;95.70;;;;;;4989389;28;20603;-77
2022/07/14 01:29:06;;;;;;;1.15;0.82;;;19.20;95.00;;;;;;4989601;28;20030;-78
2022/07/14 01:31:32;;;;;;;1.00;0.88;;;19.20;95.00;;;;;;4988058;28;20034;-78
2022/07/14 01:33:57;;;;;;;0.80;0.70;;;19.20;95.10;;;;;;4989696;28;20026;-78
2022/07/14 01:36:24;;;;;;;1.42;0.68;;;19.10;94.70;;;;;;4989156;28;20058;-78
2022/07/14 01:38:51;;;;;;;0.70;0.70;;;19.00;94.40;;;;;;4989936;28;20260;-78
2022/07/14 01:41:18;;;;;;;1.20;0.93;;;19.00;94.80;;;;;;4989894;28;20104;-78
2022/07/14 01:43:43;;;;;;;6.22;0.90;;;18.90;94.90;;;;;;4989766;28;20422;-77
2022/07/14 01:46:09;;;;;;;1.20;1.10;;;18.90;95.50;;;;;;4988009;28;20126;-79
2022/07/14 01:48:34;;;;;;;0.93;0.73;;;18.80;95.70;;;;;;4989388;28;20469;-78
2022/07/14 01:51:00;;;;;;;0.63;0.63;;;18.80;95.80;;;;;;4989306;28;20030;-78
2022/07/14 01:53:25;;;;;;;1.08;0.90;;;18.80;96.40;;;;;;4988780;28;20125;-77
2022/07/14 01:55:51;;;;;;;0.75;0.75;;;18.70;96.20;;;;;;4988769;28;20056;-78
2022/07/14 01:58:16;;;;;;;2.47;1.10;;;18.60;96.50;;;;;;4988855;28;20539;-78
2022/07/14 02:00:41;;;;;;;0.93;0.85;;;18.60;96.60;;;;;;4987751;28;20018;-78
2022/07/14 02:03:07;;;;;;;1.00;0.90;;;18.60;97.20;;;;;;4988104;28;20170;-78
2022/07/14 02:05:32;;;;;;;2.05;0.90;;;18.60;97.10;;;;;;4989025;28;20469;-79
2022/07/14 02:07:58;;;;;;;1.73;1.20;;;18.50;97.70;;;;;;4989027;28;20030;-78
2022/07/14 02:13:07;;;;;;;1.48;0.55;;;18.50;97.00;;;;;;4988870;28;20038;-79
2022/07/14 02:15:33;;;;;;;2.63;0.90;;;18.40;96.80;;;;;;4988849;28;20038;-78
2022/07/14 02:17:58;;;;;;;5.43;0.82;;;18.40;97.40;;;;;;4990137;28;20097;-77
2022/07/14 02:20:25;;;;;;;0.85;0.70;;;18.30;97.10;;;;;;4992649;28;20771;-78
2022/07/14 02:22:50;;;;;;;1.05;0.68;;;18.20;97.30;;;;;;4992427;28;20077;-77
2022/07/14 02:25:16;;;;;;;0.82;0.50;;;18.20;97.20;;;;;;4992553;28;20031;-77
2022/07/14 02:27:41;;;;;;;0.82;0.70;;;18.10;97.30;;;;;;4993009;28;20478;-78
2022/07/14 02:30:07;;;;;;;0.60;0.60;;;18.10;97.80;;;;;;4991980;28;20057;-77
2022/07/14 02:32:33;;;;;;;0.70;0.70;;;18.10;97.80;;;;;;4992620;28;20030;-79
2022/07/14 02:34:58;;;;;;;0.45;0.45;;;18.10;98.00;;;;;;4991472;28;20045;-76
2022/07/14 02:37:24;;;;;;;0.70;0.70;;;18.00;97.70;;;;;;4991952;28;20489;-78
2022/07/14 02:39:50;;;;;;;1.58;0.75;;;17.90;98.50;;;;;;4992383;28;20453;-79
2022/07/14 02:42:15;;;;;;;1.13;0.60;;;17.80;98.20;;;;;;4992900;28;20018;-78
2022/07/14 02:44:41;;;;;;;0.77;0.77;;;17.70;98.80;;;;;;4992420;28;20461;-79
2022/07/14 02:47:06;;;;;;;0.50;0.50;;;17.70;98.90;;;;;;4990200;28;20271;-78
2022/07/14 02:49:32;;;;;;;1.83;0.50;;;17.70;98.50;;;;;;4991728;28;20046;-77
2022/07/14 02:51:57;;;;;;;1.05;1.00;;;17.60;98.60;;;;;;4992058;28;20040;-78
2022/07/14 02:54:23;;;;;;;0.50;0.50;;;17.60;99.40;;;;;;4991587;28;20085;-79
2022/07/14 02:56:49;;;;;;;1.55;0.88;;;17.50;99.00;;;;;;4992519;28;20109;-79
2022/07/14 02:59:14;;;;;;;0.57;0.57;;;17.50;99.20;;;;;;4991975;28;20046;-77
2022/07/14 03:01:40;;;;;;;0.43;0.43;;;17.40;99.00;;;;;;4992081;28;20117;-77
2022/07/14 03:04:06;;;;;;;0.60;0.60;;;17.40;99.30;;;;;;4991003;28;20479;-78
2022/07/14 03:06:32;;;;;;;0.50;0.50;;;17.40;99.70;;;;;;4992315;28;20027;-77
2022/07/14 03:08:57;;;;;;;6.03;0.73;;;17.30;99.40;;;;;;4993117;28;20026;-78
2022/07/14 03:11:22;;;;;;;1.30;0.75;;;17.20;99.90;;;;;;4991607;28;20077;-77
2022/07/14 03:13:48;;;;;;;0.73;0.68;;;17.20;99.90;;;;;;4991929;28;20022;-78
2022/07/14 03:16:13;;;;;;;2.05;0.63;;;17.10;99.90;;;;;;4991777;28;20057;-78
2022/07/14 03:18:39;;;;;;;1.60;0.80;;;17.10;99.90;;;;;;4992177;28;20123;-78
2022/07/14 03:21:10;;;;;;;0.47;0.47;;;17.00;99.90;;;;;;4991066;28;20034;-78
2022/07/14 03:23:35;;;;;;;2.15;1.17;;;17.00;99.90;;;;;;4991607;28;20073;-77
2022/07/14 03:26:01;;;;;;;0.63;0.60;;;17.10;99.90;;;;;;4991696;28;20050;-78
2022/07/14 03:28:28;;;;;;;2.58;0.85;;;17.10;99.90;;;;;;4991597;28;20046;-78
2022/07/14 03:30:55;;;;;;;4.28;1.70;;;17.10;99.90;;;;;;4991875;28;20026;-77
2022/07/14 03:33:21;;;;;;;1.05;1.00;;;17.00;99.90;;;;;;4990807;28;20042;-78
2022/07/14 03:35:48;;;;;;;3.20;0.88;;;17.00;99.90;;;;;;4991235;28;20030;-78
2022/07/14 03:38:13;;;;;;;0.40;0.40;;;17.00;99.90;;;;;;4991077;28;20034;-79
2022/07/14 03:40:39;;;;;;;1.38;0.70;;;17.00;99.90;;;;;;4990733;28;20045;-78
2022/07/14 03:43:04;;;;;;;2.00;0.75;;;16.90;99.90;;;;;;4991460;28;20117;-77
2022/07/14 03:45:30;;;;;;;0.60;0.60;;;16.90;99.90;;;;;;4990974;28;20018;-77
2022/07/14 03:47:55;;;;;;;0.70;0.68;;;16.80;99.90;;;;;;4991488;28;20033;-77
2022/07/14 03:50:21;;;;;;;0.75;0.60;;;16.80;99.90;;;;;;4990541;28;20072;-77
2022/07/14 03:52:47;;;;;;;4.63;0.70;;;16.90;99.90;;;;;;4990933;28;20045;-78
2022/07/14 03:55:13;;;;;;;1.27;0.60;;;16.90;99.90;;;;;;4990239;28;20030;-79
2022/07/14 03:57:39;;;;;;;2.45;1.05;;;16.90;99.90;;;;;;4987610;28;20049;-77
2022/07/14 04:00:06;;;;;;;0.50;0.50;;;16.80;99.90;;;;;;4990870;28;20035;-77
2022/07/14 04:02:31;;;;;;;3.60;0.75;;;16.80;99.90;;;;;;4989372;28;20082;-77
2022/07/14 04:04:57;;;;;;;2.28;0.85;;;16.80;99.90;;;;;;4990364;28;20105;-77
2022/07/14 04:07:22;;;;;;;1.00;0.88;;;16.70;99.90;;;;;;4991139;28;20022;-77
2022/07/14 04:09:49;;;;;;;0.55;0.50;;;16.60;99.90;;;;;;4989618;28;20022;-77
2022/07/14 04:12:15;;;;;;;1.45;0.68;;;16.60;99.90;;;;;;4990096;28;20030;-78
2022/07/14 04:14:41;;;;;;;2.28;0.88;;;16.60;99.90;;;;;;4989132;28;20026;-78
2022/07/14 04:17:06;;;;;;;3.70;1.27;;;16.60;99.90;;;;;;4989478;28;20471;-77
2022/07/14 04:19:32;;;;;;;2.83;0.75;;;16.60;99.90;;;;;;4990306;28;20049;-78
2022/07/14 04:21:57;;;;;;;1.10;0.63;;;16.60;99.90;;;;;;4984209;28;20607;-79
2022/07/14 04:24:23;;;;;;;1.13;0.75;;;16.50;99.90;;;;;;4993548;28;20045;-77
2022/07/14 04:26:48;;;;;;;4.55;1.38;;;16.50;99.90;;;;;;4990561;28;20109;-77
2022/07/14 04:29:14;;;;;;;1.38;0.68;;;16.60;99.90;;;;;;4990103;28;20081;-77
2022/07/14 04:31:39;;;;;;;2.95;1.05;;;16.50;99.90;;;;;;4989343;28;20037;-78
2022/07/14 04:34:05;;;;;;;2.60;1.45;;;16.50;99.90;;;;;;4989959;28;20117;-74
2022/07/14 04:36:30;;;;;;;2.10;0.57;;;16.50;99.90;;;;;;4989717;28;20743;-76
2022/07/14 04:38:58;;;;;;;1.38;1.10;;;16.50;99.90;;;;;;4989334;28;20077;-76
2022/07/14 04:41:24;;;;;;;1.17;0.60;;;16.50;99.90;;;;;;4989214;28;20026;-77
2022/07/14 04:43:50;;;;;;;2.95;0.75;;;16.50;99.90;;;;;;4989302;28;20034;-77
2022/07/14 04:46:16;;;;;;;3.00;1.08;;;16.50;99.90;;;;;;4988116;28;20022;-76
2022/07/14 04:54:10;;;;;;;5.25;1.10;;;16.50;99.90;;;;;;4990348;28;20052;-77
2022/07/14 04:56:35;;;;;;;4.05;0.95;;;16.60;99.90;;;;;;4989260;28;20552;-75
2022/07/14 04:59:00;;;;;;;0.80;0.50;;;16.60;99.90;;;;;;4989885;28;20453;-76
2022/07/14 05:01:26;;;;;;;0.68;0.65;;;16.50;99.90;;;;;;4989203;28;20034;-76
2022/07/14 05:03:51;;;;;;;1.52;0.40;;;16.60;99.90;;;;;;4988141;28;20027;-76
2022/07/14 05:06:18;;;;;;;1.52;1.15;;;16.50;99.90;;;;;;4989595;28;20030;-76
2022/07/14 05:08:43;;;;;;;1.60;1.02;;;16.50;99.90;;;;;;4989691;28;20045;-76
2022/07/14 05:11:09;;;;;;;1.67;0.50;;;16.50;99.90;;;;;;4988709;28;20109;-75
2022/07/14 05:13:34;;;;;;;0.60;0.55;;;16.60;99.90;;;;;;4989435;28;20706;-73
2022/07/14 05:16:00;;;;;;;1.10;0.80;;;16.60;99.90;;;;;;4989342;28;20037;-75
2022/07/14 05:18:25;;;;;;;3.50;1.52;;;16.50;99.90;;;;;;4988673;28;20023;-74
2022/07/14 05:21:17;;;;;;;0.45;0.45;;;16.60;99.90;;;;;;4987044;28;20034;-76
2022/07/14 05:23:43;;;;;;;0.43;0.43;;;16.60;99.90;;;;;;4984773;28;20030;-75
2022/07/14 05:26:12;;;;;;;0.63;0.50;;;16.70;99.90;;;;;;4989343;28;20026;-75
2022/07/14 05:28:39;;;;;;;1.42;1.15;;;16.60;99.90;;;;;;4989346;28;20378;-75
2022/07/14 05:31:05;;;;;;;1.35;0.90;;;16.70;99.90;;;;;;4989278;28;20030;-74
2022/07/14 05:33:31;;;;;;;2.00;0.85;;;16.70;99.90;;;;;;4988138;28;20038;-75
2022/07/14 05:35:56;;;;;;;1.88;0.70;;;16.60;99.90;;;;;;4987844;28;20068;-74
2022/07/14 05:38:23;;;;;;;1.98;0.80;;;16.60;99.90;;;;;;4985271;28;20034;-75
2022/07/14 05:40:49;;;;;;;4.28;0.90;;;16.70;99.90;;;;;;4990144;28;20060;-74
2022/07/14 05:43:14;;;;;;;4.18;0.90;;;16.70;99.90;;;;;;4987338;28;20477;-75
2022/07/14 05:45:40;;;;;;;1.55;0.65;;;16.60;99.90;;;;;;4987206;28;20026;-75
2022/07/14 05:48:06;;;;;;;4.30;0.60;;;16.60;99.90;;;;;;4989297;28;20096;-75
2022/07/14 05:50:31;;;;;;;0.40;0.40;;;16.60;99.90;;;;;;4988635;28;20034;-75
2022/07/14 05:52:57;;;;;;;2.00;0.75;;;16.60;99.90;;;;;;4986977;28;20026;-75
2022/07/14 05:55:22;;;;;;;2.80;1.02;;;16.70;99.90;;;;;;4988734;28;20027;-73
2022/07/14 05:57:49;;;;;;;1.48;1.38;;;16.70;99.90;;;;;;4988921;28;20118;-74
2022/07/14 06:00:15;;;;;;;0.88;0.60;;;16.80;99.90;;;;;;4988957;28;20033;-75
2022/07/14 06:02:41;;;;;;;0.55;0.55;;;16.90;99.90;;;;;;4987551;28;20026;-76
2022/07/14 06:05:07;;;;;;;1.65;0.45;;;16.90;99.90;;;;;;4988019;28;20432;-75
2022/07/14 06:07:33;;;;;;;3.72;0.65;;;17.00;99.90;;;;;;4985234;28;20120;-75
2022/07/14 06:09:58;;;;;;;1.30;0.70;;;17.00;99.90;;;;;;4988482;28;20129;-75
2022/07/14 06:12:24;;;;;;;1.38;0.60;;;17.00;99.90;;;;;;4988214;28;20393;-75
2022/07/14 06:14:50;;;;;;;2.35;0.70;;;17.10;99.90;;;;;;4988446;28;20513;-75
2022/07/14 06:17:15;;;;;;;1.58;1.48;;;17.00;99.90;;;;;;4988353;28;20433;-75
2022/07/14 06:19:41;;;;;;;1.20;1.05;;;17.20;99.90;;;;;;4988464;28;20022;-75
2022/07/14 06:22:06;;;;;;;0.70;0.70;;;17.20;99.90;;;;;;4987509;28;20114;-75
2022/07/14 06:24:39;;;;;;;1.27;0.50;;;17.30;99.90;;;;;;4987233;28;20018;-75
2022/07/14 06:27:05;;;;;;;0.95;0.50;;;17.30;99.90;;;;;;4988600;28;20081;-76
2022/07/14 06:29:30;;;;;;;1.65;0.88;;;17.30;99.90;;;;;;4988299;28;20049;-76
2022/07/14 06:31:56;;;;;;;1.10;0.85;;;17.30;99.90;;;;;;4988518;28;20109;-75
2022/07/14 06:34:22;;;;;;;1.40;0.77;;;17.30;99.90;;;;;;4987682;28;20038;-72
2022/07/14 06:36:48;;;;;;;1.05;0.93;;;17.40;99.90;;;;;;4988110;28;20054;-74
2022/07/14 06:39:14;;;;;;;0.93;0.40;;;17.50;99.90;;;;;;4988097;28;20065;-73
2022/07/14 06:41:40;;;;;;;0.60;0.60;;;17.60;99.90;;;;;;4985832;28;20081;-76
2022/07/14 06:44:41;;;;;;;1.55;0.73;;;17.70;99.90;;;;;;4987972;28;20042;-76
2022/07/14 06:47:06;;;;;;;3.22;0.50;;;17.70;99.90;;;;;;4977002;28;20054;-76
2022/07/14 06:49:32;;;;;;;1.88;0.60;;;17.80;98.80;;;;;;4988114;28;20094;-76
2022/07/14 06:51:57;;;;;;;1.08;0.77;;;17.70;98.80;;;;;;4988254;28;20061;-76
2022/07/14 06:54:23;;;;;;;0.93;0.60;;;17.70;98.90;;;;;;4988113;28;20045;-76
2022/07/14 06:56:48;;;;;;;0.43;0.43;;;17.80;97.30;;;;;;4988115;28;20085;-76
2022/07/14 06:59:14;;;;;;;4.03;1.20;;;17.70;95.60;;;;;;4988103;28;20038;-77
2022/07/14 07:01:39;;;;;;;5.97;0.68;;;17.60;95.10;;;;;;4987032;28;20433;-74
2022/07/14 07:04:06;;;;;;;1.77;0.70;;;17.50;95.30;;;;;;4990514;28;20022;-76
2022/07/14 07:06:44;;;;;;;2.22;0.43;;;17.60;95.50;;;;;;4991869;28;20117;-76
2022/07/14 07:09:14;;;;;;;1.15;0.70;;;17.70;95.80;;;;;;4991937;28;20109;-76
2022/07/14 07:11:39;;;;;;;1.75;0.70;;;17.90;95.50;;;;;;4991521;28;20030;-77
2022/07/14 07:14:05;;;;;;;0.82;0.73;;;17.90;95.00;;;;;;4991842;28;20030;-76
2022/07/14 07:16:31;;;;;;;0.35;0.35;;;17.90;93.20;;;;;;4991225;28;20037;-76
2022/07/14 07:18:56;;;;;;;1.52;0.50;;;18.00;93.20;;;;;;4990728;28;20034;-77
2022/07/14 07:21:22;;;;;;;2.30;1.08;;;18.00;93.90;;;;;;4991527;28;20022;-76
2022/07/14 07:23:48;;;;;;;2.40;1.00;;;18.10;93.80;;;;;;4991810;28;20053;-77
2022/07/14 07:26:14;;;;;;;0.57;0.57;;;18.10;92.70;;;;;;4991823;28;20121;-77
2022/07/14 07:28:40;;;;;;;2.05;0.70;;;18.10;91.30;;;;;;4991423;28;20519;-77
2022/07/14 07:31:05;;;;;;;0.70;0.60;;;18.10;92.50;;;;;;4991965;28;20027;-77
2022/07/14 07:33:32;;;;;;;0.60;0.60;;;18.10;90.70;;;;;;4991662;28;20025;-78
2022/07/14 07:35:58;;;;;;;1.35;0.73;;;18.10;90.10;;;;;;4990085;28;20074;-78
2022/07/14 07:38:24;;;;;;;0.28;0.28;;;18.10;86.70;;;;;;4991198;28;20445;-77
2022/07/14 07:40:49;;;;;;;0.30;0.30;;;18.00;85.10;;;;;;4991091;28;20110;-77
2022/07/14 07:43:15;;;;;;;0.50;0.50;;;17.90;87.30;;;;;;4991319;28;20022;-76
2022/07/14 07:45:41;;;;;;;2.40;0.50;;;18.00;87.00;;;;;;4991213;28;20041;-76
2022/07/14 07:48:07;;;;;;;0.40;0.40;;;18.00;84.80;;;;;;4988725;28;20464;-77
2022/07/14 07:50:33;;;;;;;0.75;0.30;;;18.10;83.20;;;;;;4991345;28;20023;-77
2022/07/14 07:52:59;;;;;;;0.47;0.30;;;18.20;83.80;;;;;;4991184;28;20227;-77
2022/07/14 07:55:25;;;;;;;0.57;0.57;;;18.20;86.60;;;;;;4991149;28;20027;-77
2022/07/14 07:57:50;;;;;;;1.33;0.60;;;18.30;86.10;;;;;;4990778;28;20146;-75
2022/07/14 08:00:16;;;;;;;12.40;1.30;;;18.30;84.50;;;;;;4990741;28;20026;-75
2022/07/14 08:02:46;;;;;;;1.00;0.30;;;18.30;84.50;;;;;;4990080;28;20547;-77
2022/07/14 08:05:12;;;;;;;0.30;0.27;;;18.30;88.00;;;;;;4988579;28;20049;-77
2022/07/14 08:07:37;;;;;;;0.32;0.32;;;18.50;86.70;;;;;;4990609;28;20700;-78
2022/07/14 08:10:04;;;;;;;4.63;0.63;;;18.30;83.20;;;;;;4989732;28;20505;-77
2022/07/14 08:12:29;;;;;;;0.40;0.40;;;18.50;83.20;;;;;;4990345;28;20034;-78
2022/07/14 08:14:54;;;;;;;4.30;0.57;;;18.60;79.50;;;;;;4989589;28;20037;-76
2022/07/14 08:17:21;;;;;;;1.95;0.40;;;18.60;79.40;;;;;;4990446;28;20022;-77
2022/07/14 08:19:48;;;;;;;0.43;0.32;;;18.60;82.70;;;;;;4990420;28;20038;-77
2022/07/14 08:22:14;;;;;;;0.35;0.32;;;18.60;82.80;;;;;;4990467;28;20581;-77
2022/07/14 08:24:40;;;;;;;1.92;0.65;;;18.60;79.30;;;;;;4990212;28;20034;-77
2022/07/14 08:27:05;;;;;;;0.52;0.20;;;18.60;73.70;;;;;;4989435;28;20664;-78
2022/07/14 08:29:31;;;;;;;0.47;0.47;;;18.70;72.50;;;;;;4990030;28;20022;-78
2022/07/14 08:31:56;;;;;;;1.92;0.30;;;18.80;72.20;;;;;;4990325;28;20026;-77
2022/07/14 08:34:22;;;;;;;0.22;0.22;;;18.90;74.80;;;;;;4988571;28;20084;-77
2022/07/14 08:36:48;;;;;;;0.30;0.30;;;19.00;75.00;;;;;;4989623;28;20093;-77
2022/07/14 08:39:15;;;;;;;0.25;0.25;;;19.10;70.70;;;;;;4990300;28;20037;-77
2022/07/14 08:41:42;;;;;;;0.25;0.15;;;19.20;71.10;;;;;;4988327;28;20042;-77
2022/07/14 08:44:08;;;;;;;1.98;0.68;;;19.20;70.40;;;;;;4987016;28;20031;-77
2022/07/14 08:46:36;;;;;;;0.32;0.20;;;19.20;69.80;;;;;;4989110;28;20543;-77
2022/07/14 08:49:05;;;;;;;0.52;0.50;;;19.10;70.10;;;;;;4988822;28;20034;-77
2022/07/14 08:51:32;;;;;;;0.70;0.38;;;19.00;69.10;;;;;;4989745;28;20605;-77
2022/07/14 08:53:57;;;;;;;0.60;0.30;;;19.10;66.80;;;;;;4989923;28;20034;-78
2022/07/14 08:56:23;;;;;;;0.90;0.65;;;19.20;66.70;;;;;;4989999;28;20436;-78
2022/07/14 08:58:48;;;;;;;0.17;0.17;;;19.40;65.20;;;;;;4989709;28;20029;-77
2022/07/14 09:01:14;;;;;;;0.52;0.28;;;19.40;67.80;;;;;;4988982;28;20485;-77
2022/07/14 09:03:40;;;;;;;1.20;0.17;;;19.40;66.00;;;;;;4989521;28;20165;-78
2022/07/14 09:06:05;;;;;;;0.28;0.20;;;19.50;66.20;;;;;;4989853;28;20065;-78
2022/07/14 09:08:53;;;;;;;0.20;0.20;;;19.50;66.40;;;;;;4989312;28;20034;-76
2022/07/14 09:11:19;;;;;;;0.30;0.30;;;19.70;67.50;;;;;;4989688;28;20129;-76
2022/07/14 09:13:44;;;;;;;0.55;0.40;;;19.60;63.90;;;;;;4988269;28;20420;-76
2022/07/14 09:16:22;;;;;;;0.82;0.28;;;19.60;66.30;;;;;;4987270;28;20034;-78
2022/07/14 09:19:06;;;;;;;0.28;0.28;;;19.60;65.00;;;;;;4989780;28;20093;-77
2022/07/14 09:21:32;;;;;;;0.25;0.20;;;19.80;64.50;;;;;;4988399;28;20037;-78
2022/07/14 09:23:58;;;;;;;0.50;0.38;;;20.00;67.00;;;;;;4989828;28;20023;-78
2022/07/14 09:26:24;;;;;;;1.42;0.30;;;20.20;64.10;;;;;;4989089;28;20069;-78
2022/07/14 09:28:51;;;;;;;0.20;0.20;;;20.30;63.00;;;;;;4989142;28;20065;-77
2022/07/14 09:31:22;;;;;;;0.38;0.30;;;20.30;60.80;;;;;;4989426;28;20486;-78
2022/07/14 09:33:52;;;;;;;3.55;0.30;;;20.20;60.40;;;;;;4989193;28;20026;-77
2022/07/14 09:36:32;;;;;;;0.20;0.20;;;20.20;64.40;;;;;;4989015;28;20177;-80
2022/07/14 09:39:06;;;;;;;0.20;0.20;;;20.50;65.90;;;;;;4988114;28;20780;-78
2022/07/14 09:41:48;;;;;;;0.65;0.43;;;20.60;61.00;;;;;;4989029;28;20444;-80
2022/07/14 09:44:17;;;;;;;0.93;0.25;;;20.70;61.50;;;;;;4989187;28;20031;-77
2022/07/14 09:46:56;;;;;;;1.02;0.40;;;20.60;59.70;;;;;;4986950;28;20030;-77
2022/07/14 09:49:25;;;;;;;0.65;0.50;;;20.80;64.50;;;;;;4986720;28;20041;-77
2022/07/14 09:51:59;;;;;;;0.68;0.38;;;20.80;59.80;;;;;;4988834;28;20022;-79
2022/07/14 09:54:37;;;;;;;0.10;0.10;;;20.80;62.40;;;;;;4988934;28;20513;-77
2022/07/14 09:57:08;;;;;;;1.20;0.38;;;21.00;60.10;;;;;;4988753;28;20134;-79
2022/07/14 09:59:43;;;;;;;2.35;0.45;;;21.10;59.20;;;;;;4988628;28;20034;-77
2022/07/14 10:02:14;;;;;;;2.75;0.55;;;21.00;55.80;;;;;;4988943;28;20031;-79
2022/07/14 10:04:40;;;;;;;0.60;0.28;;;21.10;59.60;;;;;;4987637;28;20093;-79
2022/07/14 10:07:05;;;;;;;0.30;0.30;;;21.20;59.00;;;;;;4989023;28;20031;-79
2022/07/14 10:09:32;;;;;;;1.17;0.63;;;21.30;59.00;;;;;;4988521;28;20030;-77
2022/07/14 10:12:00;;;;;;;5.28;0.68;;;21.30;60.70;;;;;;4988948;28;20060;-77
2022/07/14 10:14:25;;;;;;;0.25;0.25;;;21.40;62.10;;;;;;4988649;28;20037;-78
2022/07/14 10:16:51;;;;;;;1.98;0.50;;;21.50;60.70;;;;;;4987552;28;20483;-80
2022/07/14 10:19:18;;;;;;;0.20;0.20;;;21.60;59.40;;;;;;4987530;28;20034;-77
2022/07/14 10:21:46;;;;;;;0.38;0.13;;;21.70;58.60;;;;;;4988447;28;20493;-79
2022/07/14 10:24:12;;;;;;;1.65;0.30;;;21.70;59.40;;;;;;4988639;28;20070;-76
2022/07/14 10:26:38;;;;;;;0.30;0.30;;;21.80;62.50;;;;;;4988406;28;20034;-77
2022/07/14 10:29:06;;;;;;;1.00;0.43;;;21.80;57.70;;;;;;4988732;28;20026;-76
2022/07/14 10:32:13;;;;;;;0.20;0.20;;;21.80;57.20;;;;;;4988146;28;20037;-77
2022/07/14 10:34:59;;;;;;;0.30;0.30;;;21.80;58.40;;;;;;4987161;28;20023;-77
2022/07/14 10:37:46;;;;;;;0.20;0.20;;;22.00;60.80;;;;;;4988281;28;20412;-76
2022/07/14 10:40:43;;;;;;;0.50;0.50;;;22.20;55.90;;;;;;4992133;28;20034;-78
2022/07/14 10:43:19;;;;;;;1.00;0.30;;;22.20;55.80;;;;;;4992452;28;20054;-76
2022/07/14 10:45:52;;;;;;;0.65;0.20;;;22.30;53.50;;;;;;4992059;28;20030;-76
2022/07/14 10:48:35;;;;;;;0.10;0.10;;;22.10;53.60;;;;;;4990122;28;20105;-77
2022/07/14 10:51:18;;;;;;;0.85;0.63;;;22.60;58.90;;;;;;4991249;28;20030;-76
2022/07/14 10:54:21;;;;;;;0.85;0.30;;;23.20;58.30;;;;;;4991886;28;20026;-78
2022/07/14 10:56:47;;;;;;;0.50;0.20;;;23.30;52.90;;;;;;4990684;28;20077;-76
2022/07/14 10:59:28;;;;;;;0.52;0.50;;;23.40;52.50;;;;;;4992499;28;20271;-77
2022/07/14 11:02:14;;;;;;;0.28;0.28;;;23.60;51.90;;;;;;4991899;28;20485;-78
2022/07/14 11:07:34;;;;;;;0.65;0.30;;;24.10;54.70;;;;;;4991918;28;20121;-77
2022/07/14 11:10:00;;;;;;;0.77;0.40;;;24.50;52.50;;;;;;4991812;28;20109;-76
2022/07/14 11:12:27;;;;;;;1.30;0.82;;;24.70;53.80;;;;;;4990610;28;20029;-77
2022/07/14 11:14:53;;;;;;;0.40;0.40;;;25.00;53.30;;;;;;4991478;28;20516;-77
2022/07/14 11:17:39;;;;;;;0.75;0.50;;;25.30;54.00;;;;;;4991732;28;20027;-77
2022/07/14 11:20:10;;;;;;;0.55;0.40;;;25.50;52.10;;;;;;4991601;28;20026;-77
2022/07/14 11:22:36;;;;;;;0.88;0.50;;;25.70;52.00;;;;;;4988843;28;20023;-73
2022/07/14 11:25:03;;;;;;;0.57;0.28;;;26.00;54.60;;;;;;4990370;28;20033;-74
2022/07/14 11:27:35;;;;;;;1.90;0.50;;;26.00;52.70;;;;;;4990297;28;20408;-75
2022/07/14 11:30:16;;;;;;;0.40;0.40;;;26.30;54.10;;;;;;4991794;28;20034;-74
2022/07/14 11:32:42;;;;;;;0.63;0.20;;;25.80;47.30;;;;;;4991559;28;20022;-74
2022/07/14 11:38:21;;;;;;;0.88;0.50;;;26.50;52.40;;;;;;4990374;28;20161;-76
2022/07/14 11:40:51;;;;;;;0.45;0.35;;;27.20;47.70;;;;;;4991188;28;20030;-74
2022/07/14 11:43:28;;;;;;;0.40;0.40;;;26.90;46.00;;;;;;4990985;28;20034;-76
2022/07/14 11:46:00;;;;;;;1.90;0.50;;;26.70;48.70;;;;;;4989849;28;20018;-75
2022/07/14 11:48:30;;;;;;;1.42;0.50;;;27.20;52.60;;;;;;4988932;28;20031;-74
2022/07/14 11:51:12;;;;;;;0.57;0.50;;;27.90;48.50;;;;;;4989501;28;20026;-76
2022/07/14 11:53:39;;;;;;;0.20;0.20;;;26.60;45.50;;;;;;4991249;28;20057;-81
2022/07/14 11:56:08;;;;;;;1.20;0.47;;;25.30;47.40;;;;;;4990692;28;20026;-80
2022/07/14 11:58:35;;;;;;;0.40;0.40;;;25.80;48.00;;;;;;4990856;28;20104;-77
2022/07/14 12:01:02;;;;;;;0.47;0.40;;;26.80;48.00;;;;;;4990183;28;20026;-81
2022/07/14 12:03:28;;;;;;;3.17;0.55;;;27.80;49.30;;;;;;4990800;28;20076;-77
2022/07/14 12:05:56;;;;;;;0.45;0.40;;;28.60;46.60;;;;;;4990956;28;20097;-77
2022/07/14 12:08:24;;;;;;;1.13;0.40;;;29.40;47.50;;;;;;4991094;28;20085;-78
2022/07/14 12:10:50;;;;;;;0.20;0.20;;;29.10;38.70;;;;;;4990968;28;20034;-85
2022/07/14 12:13:17;;;;;;;0.20;0.20;;;28.00;40.20;;;;;;4990936;28;20062;-82
2022/07/14 12:15:43;;;;;;;0.52;0.25;;;27.70;40.90;;;;;;4989725;28;20548;-85
2022/07/14 12:18:10;;;;;;;0.20;0.20;;;27.30;43.40;;;;;;4989041;28;20042;-82
2022/07/14 12:20:44;;;;;;;1.10;0.30;;;28.10;43.00;;;;;;4990481;28;20026;-86
2022/07/14 12:23:11;;;;;;;1.55;0.60;;;29.10;43.70;;;;;;4990504;28;20019;-86
2022/07/14 12:25:45;;;;;;;0.30;0.30;;;29.60;40.60;;;;;;4990467;28;20441;-84
2022/07/14 12:28:13;;;;;;;2.25;0.30;;;29.60;41.40;;;;;;4990341;28;20037;-84
2022/07/14 12:30:53;;;;;;;1.27;0.40;;;29.90;44.30;;;;;;4990117;28;20574;-83
2022/07/14 12:33:20;;;;;;;0.30;0.30;;;;;;;;;;4990731;28;20168;-83
2022/07/14 12:35:48;;;;;;;2.55;0.40;;;30.50;37.50;;;;;;4989534;28;20547;-86
2022/07/14 12:38:15;;;;;;;2.05;0.40;;;31.00;42.40;;;;;;4988694;28;20046;-83
2022/07/14 12:40:41;;;;;;;0.30;0.30;;;30.80;39.50;;;;;;4989466;28;20026;-84
2022/07/14 12:43:09;;;;;;;0.65;0.30;;;31.50;37.90;;;;;;4990683;28;20053;-85
2022/07/14 12:46:02;;;;;;;0.20;0.20;;;32.20;41.50;;;;;;4987759;28;20031;-82
2022/07/14 12:48:31;;;;;;;0.55;0.50;;;31.50;35.60;;;;;;4981398;28;20050;-87
2022/07/14 12:51:15;;;;;;;0.85;0.70;;;;;;;;;;4990177;28;20484;-81
2022/07/14 12:53:54;;;;;;;0.70;0.45;;;33.70;34.80;;;;;;4989820;28;20240;-81
2022/07/14 12:56:22;;;;;;;0.52;0.50;;;35.40;36.90;;;;;;4990041;28;20022;-82
2022/07/14 12:58:48;;;;;;;0.63;0.47;;;35.20;32.40;;;;;;4989819;28;20022;-81
2022/07/14 13:01:13;;;;;;;0.90;0.73;;;36.00;30.00;;;;;;4989117;28;20034;-79
2022/07/14 13:03:39;;;;;;;0.30;0.25;;;35.30;30.00;;;;;;4989170;28;20022;-82
2022/07/14 13:06:04;;;;;;;0.98;0.47;;;34.90;29.60;;;;;;4988827;28;20113;-79